sensor_id;sensor_type;location;lat;lon;timestamp;P1;durP1;ratioP1;P2;durP2;ratioP2
55063;SDS011;40963;52.168;21.296;2022-12-07T00:01:09;47.92;;;19.30;;
55063;SDS011;40963;52.168;21.296;2022-12-07T00:03:43;53.03;;;19.85;;
55063;SDS011;40963;52.168;21.296;2022-12-07T00:06:11;49.03;;;19.23;;
55063;SDS011;40963;52.168;21.296;2022-12-07T00:08:38;45.10;;;20.27;;
55063;SDS011;40963;52.168;21.296;2022-12-07T00:11:05;50.53;;;20.13;;
55063;SDS011;40963;52.168;21.296;2022-12-07T00:13:33;44.95;;;18.88;;
55063;SDS011;40963;52.168;21.296;2022-12-07T00:16:00;48.50;;;19.83;;
55063;SDS011;40963;52.168;21.296;2022-12-07T00:18:31;51.63;;;19.70;;
55063;SDS011;40963;52.168;21.296;2022-12-07T00:21:04;40.35;;;17.65;;
55063;SDS011;40963;52.168;21.296;2022-12-07T00:23:31;36.33;;;15.70;;
55063;SDS011;40963;52.168;21.296;2022-12-07T00:26:04;51.47;;;20.52;;
55063;SDS011;40963;52.168;21.296;2022-12-07T00:28:37;16.17;;;8.77;;
55063;SDS011;40963;52.168;21.296;2022-12-07T00:31:04;46.13;;;18.17;;
55063;SDS011;40963;52.168;21.296;2022-12-07T00:33:34;37.15;;;14.68;;
55063;SDS011;40963;52.168;21.296;2022-12-07T00:36:02;49.13;;;18.83;;
55063;SDS011;40963;52.168;21.296;2022-12-07T00:38:30;48.88;;;17.08;;
55063;SDS011;40963;52.168;21.296;2022-12-07T00:40:57;45.78;;;18.35;;
55063;SDS011;40963;52.168;21.296;2022-12-07T00:43:27;47.13;;;17.45;;
55063;SDS011;40963;52.168;21.296;2022-12-07T00:45:53;38.53;;;17.33;;
55063;SDS011;40963;52.168;21.296;2022-12-07T00:48:20;43.88;;;18.98;;
55063;SDS011;40963;52.168;21.296;2022-12-07T00:50:46;44.05;;;18.60;;
55063;SDS011;40963;52.168;21.296;2022-12-07T00:53:13;44.25;;;19.08;;
55063;SDS011;40963;52.168;21.296;2022-12-07T00:55:38;41.42;;;17.98;;
55063;SDS011;40963;52.168;21.296;2022-12-07T00:58:04;39.22;;;18.10;;
55063;SDS011;40963;52.168;21.296;2022-12-07T01:00:30;42.88;;;18.50;;
55063;SDS011;40963;52.168;21.296;2022-12-07T01:02:56;36.08;;;16.40;;
55063;SDS011;40963;52.168;21.296;2022-12-07T01:05:22;42.15;;;18.73;;
55063;SDS011;40963;52.168;21.296;2022-12-07T01:07:47;39.58;;;17.60;;
55063;SDS011;40963;52.168;21.296;2022-12-07T01:10:13;38.28;;;17.00;;
55063;SDS011;40963;52.168;21.296;2022-12-07T01:12:39;43.70;;;18.55;;
55063;SDS011;40963;52.168;21.296;2022-12-07T01:15:05;40.60;;;17.38;;
55063;SDS011;40963;52.168;21.296;2022-12-07T01:17:32;47.33;;;17.67;;
55063;SDS011;40963;52.168;21.296;2022-12-07T01:19:57;45.90;;;18.08;;
55063;SDS011;40963;52.168;21.296;2022-12-07T01:22:23;41.63;;;18.27;;
55063;SDS011;40963;52.168;21.296;2022-12-07T01:24:49;47.10;;;19.55;;
55063;SDS011;40963;52.168;21.296;2022-12-07T01:27:14;39.95;;;17.17;;
55063;SDS011;40963;52.168;21.296;2022-12-07T01:29:40;46.38;;;18.20;;
55063;SDS011;40963;52.168;21.296;2022-12-07T01:32:06;49.22;;;19.75;;
55063;SDS011;40963;52.168;21.296;2022-12-07T01:34:31;41.78;;;15.38;;
55063;SDS011;40963;52.168;21.296;2022-12-07T01:36:57;39.92;;;15.52;;
55063;SDS011;40963;52.168;21.296;2022-12-07T01:39:23;29.27;;;12.55;;
55063;SDS011;40963;52.168;21.296;2022-12-07T01:41:49;27.77;;;12.55;;
55063;SDS011;40963;52.168;21.296;2022-12-07T01:44:22;37.95;;;14.90;;
55063;SDS011;40963;52.168;21.296;2022-12-07T01:47:13;2.33;;;2.13;;
55063;SDS011;40963;52.168;21.296;2022-12-07T01:49:41;41.50;;;18.50;;
55063;SDS011;40963;52.168;21.296;2022-12-07T01:52:18;42.20;;;16.40;;
55063;SDS011;40963;52.168;21.296;2022-12-07T01:54:51;35.85;;;15.77;;
55063;SDS011;40963;52.168;21.296;2022-12-07T01:57:24;47.03;;;18.83;;
55063;SDS011;40963;52.168;21.296;2022-12-07T01:59:51;42.63;;;17.73;;
55063;SDS011;40963;52.168;21.296;2022-12-07T02:02:18;41.55;;;15.90;;
55063;SDS011;40963;52.168;21.296;2022-12-07T02:04:47;41.03;;;17.70;;
55063;SDS011;40963;52.168;21.296;2022-12-07T02:07:15;35.50;;;16.40;;
55063;SDS011;40963;52.168;21.296;2022-12-07T02:09:41;44.95;;;16.52;;
55063;SDS011;40963;52.168;21.296;2022-12-07T02:12:07;40.42;;;16.40;;
55063;SDS011;40963;52.168;21.296;2022-12-07T02:14:33;43.38;;;17.58;;
55063;SDS011;40963;52.168;21.296;2022-12-07T02:17:17;36.38;;;16.08;;
55063;SDS011;40963;52.168;21.296;2022-12-07T02:25:13;39.42;;;16.45;;
55063;SDS011;40963;52.168;21.296;2022-12-07T02:30:31;31.38;;;13.20;;
55063;SDS011;40963;52.168;21.296;2022-12-07T02:35:58;27.10;;;12.38;;
55063;SDS011;40963;52.168;21.296;2022-12-07T02:38:45;16.52;;;8.88;;
55063;SDS011;40963;52.168;21.296;2022-12-07T02:41:22;23.55;;;10.45;;
55063;SDS011;40963;52.168;21.296;2022-12-07T02:43:56;26.40;;;12.05;;
55063;SDS011;40963;52.168;21.296;2022-12-07T02:46:34;31.38;;;13.27;;
55063;SDS011;40963;52.168;21.296;2022-12-07T02:49:03;23.75;;;10.68;;
55063;SDS011;40963;52.168;21.296;2022-12-07T02:51:32;18.45;;;9.82;;
55063;SDS011;40963;52.168;21.296;2022-12-07T02:53:58;25.77;;;10.88;;
55063;SDS011;40963;52.168;21.296;2022-12-07T02:56:30;29.70;;;13.30;;
55063;SDS011;40963;52.168;21.296;2022-12-07T03:01:37;15.10;;;7.97;;
55063;SDS011;40963;52.168;21.296;2022-12-07T03:06:49;7.00;;;4.00;;
55063;SDS011;40963;52.168;21.296;2022-12-07T03:09:33;28.98;;;13.00;;
55063;SDS011;40963;52.168;21.296;2022-12-07T03:12:09;11.82;;;6.43;;
55063;SDS011;40963;52.168;21.296;2022-12-07T03:14:41;21.33;;;9.65;;
55063;SDS011;40963;52.168;21.296;2022-12-07T03:17:16;26.40;;;9.70;;
55063;SDS011;40963;52.168;21.296;2022-12-07T03:19:46;12.20;;;6.80;;
55063;SDS011;40963;52.168;21.296;2022-12-07T03:22:14;16.58;;;9.20;;
55063;SDS011;40963;52.168;21.296;2022-12-07T03:24:55;14.30;;;7.18;;
55063;SDS011;40963;52.168;21.296;2022-12-07T03:27:29;12.82;;;6.78;;
55063;SDS011;40963;52.168;21.296;2022-12-07T03:29:59;9.90;;;5.90;;
55063;SDS011;40963;52.168;21.296;2022-12-07T03:32:30;15.05;;;8.63;;
55063;SDS011;40963;52.168;21.296;2022-12-07T03:35:02;18.00;;;8.65;;
55063;SDS011;40963;52.168;21.296;2022-12-07T03:37:34;8.25;;;5.05;;
55063;SDS011;40963;52.168;21.296;2022-12-07T03:40:52;22.40;;;8.93;;
55063;SDS011;40963;52.168;21.296;2022-12-07T03:43:05;16.10;;;7.78;;
55063;SDS011;40963;52.168;21.296;2022-12-07T03:45:42;11.13;;;6.82;;
55063;SDS011;40963;52.168;21.296;2022-12-07T03:53:20;14.18;;;6.95;;
55063;SDS011;40963;52.168;21.296;2022-12-07T03:55:51;16.35;;;7.90;;
55063;SDS011;40963;52.168;21.296;2022-12-07T03:58:19;12.00;;;6.53;;
55063;SDS011;40963;52.168;21.296;2022-12-07T04:00:47;14.93;;;7.22;;
55063;SDS011;40963;52.168;21.296;2022-12-07T04:03:15;15.85;;;6.90;;
55063;SDS011;40963;52.168;21.296;2022-12-07T04:05:40;9.27;;;5.32;;
55063;SDS011;40963;52.168;21.296;2022-12-07T04:08:07;14.65;;;7.53;;
55063;SDS011;40963;52.168;21.296;2022-12-07T04:10:33;13.90;;;6.88;;
55063;SDS011;40963;52.168;21.296;2022-12-07T04:12:58;16.55;;;7.68;;
55063;SDS011;40963;52.168;21.296;2022-12-07T04:15:24;15.02;;;7.07;;
55063;SDS011;40963;52.168;21.296;2022-12-07T04:17:50;11.27;;;4.05;;
55063;SDS011;40963;52.168;21.296;2022-12-07T04:20:16;2.92;;;2.00;;
55063;SDS011;40963;52.168;21.296;2022-12-07T04:22:41;2.00;;;1.48;;
55063;SDS011;40963;52.168;21.296;2022-12-07T04:25:07;1.90;;;1.70;;
55063;SDS011;40963;52.168;21.296;2022-12-07T04:27:33;5.78;;;3.35;;
55063;SDS011;40963;52.168;21.296;2022-12-07T04:29:59;2.42;;;1.80;;
55063;SDS011;40963;52.168;21.296;2022-12-07T04:32:25;8.40;;;4.72;;
55063;SDS011;40963;52.168;21.296;2022-12-07T04:34:50;9.27;;;5.50;;
55063;SDS011;40963;52.168;21.296;2022-12-07T04:37:16;5.03;;;2.70;;
55063;SDS011;40963;52.168;21.296;2022-12-07T04:39:42;9.32;;;5.20;;
55063;SDS011;40963;52.168;21.296;2022-12-07T04:42:09;13.65;;;5.68;;
55063;SDS011;40963;52.168;21.296;2022-12-07T04:44:35;9.23;;;5.15;;
55063;SDS011;40963;52.168;21.296;2022-12-07T04:47:02;6.65;;;4.13;;
55063;SDS011;40963;52.168;21.296;2022-12-07T04:49:27;8.77;;;3.70;;
55063;SDS011;40963;52.168;21.296;2022-12-07T04:51:53;4.95;;;3.30;;
55063;SDS011;40963;52.168;21.296;2022-12-07T04:54:19;6.97;;;4.20;;
55063;SDS011;40963;52.168;21.296;2022-12-07T04:56:45;8.75;;;4.60;;
55063;SDS011;40963;52.168;21.296;2022-12-07T04:59:11;9.40;;;4.20;;
55063;SDS011;40963;52.168;21.296;2022-12-07T05:01:38;4.75;;;3.70;;
55063;SDS011;40963;52.168;21.296;2022-12-07T05:04:04;9.90;;;4.85;;
55063;SDS011;40963;52.168;21.296;2022-12-07T05:06:30;9.60;;;5.53;;
55063;SDS011;40963;52.168;21.296;2022-12-07T05:08:56;9.23;;;4.82;;
55063;SDS011;40963;52.168;21.296;2022-12-07T05:11:21;8.15;;;4.38;;
55063;SDS011;40963;52.168;21.296;2022-12-07T05:14:03;10.82;;;5.78;;
55063;SDS011;40963;52.168;21.296;2022-12-07T05:16:31;17.17;;;5.93;;
55063;SDS011;40963;52.168;21.296;2022-12-07T05:18:57;12.05;;;6.15;;
55063;SDS011;40963;52.168;21.296;2022-12-07T05:21:23;8.30;;;3.83;;
55063;SDS011;40963;52.168;21.296;2022-12-07T05:23:49;19.83;;;6.60;;
55063;SDS011;40963;52.168;21.296;2022-12-07T05:26:15;11.60;;;6.25;;
55063;SDS011;40963;52.168;21.296;2022-12-07T05:28:41;14.38;;;6.32;;
55063;SDS011;40963;52.168;21.296;2022-12-07T05:31:07;4.20;;;2.08;;
55063;SDS011;40963;52.168;21.296;2022-12-07T05:33:32;18.13;;;7.50;;
55063;SDS011;40963;52.168;21.296;2022-12-07T05:35:58;10.38;;;5.60;;
55063;SDS011;40963;52.168;21.296;2022-12-07T05:38:24;12.20;;;6.45;;
55063;SDS011;40963;52.168;21.296;2022-12-07T05:40:52;15.60;;;7.38;;
55063;SDS011;40963;52.168;21.296;2022-12-07T05:43:18;10.02;;;6.63;;
55063;SDS011;40963;52.168;21.296;2022-12-07T05:45:44;11.98;;;6.10;;
55063;SDS011;40963;52.168;21.296;2022-12-07T05:48:09;15.07;;;7.10;;
55063;SDS011;40963;52.168;21.296;2022-12-07T05:50:35;15.85;;;7.50;;
55063;SDS011;40963;52.168;21.296;2022-12-07T05:53:01;14.02;;;7.45;;
55063;SDS011;40963;52.168;21.296;2022-12-07T05:55:26;13.93;;;7.60;;
55063;SDS011;40963;52.168;21.296;2022-12-07T05:57:52;10.15;;;5.97;;
55063;SDS011;40963;52.168;21.296;2022-12-07T06:00:36;13.90;;;7.38;;
55063;SDS011;40963;52.168;21.296;2022-12-07T06:03:02;12.50;;;6.13;;
55063;SDS011;40963;52.168;21.296;2022-12-07T06:05:28;16.98;;;7.97;;
55063;SDS011;40963;52.168;21.296;2022-12-07T06:07:53;13.68;;;6.10;;
55063;SDS011;40963;52.168;21.296;2022-12-07T06:10:19;14.38;;;7.07;;
55063;SDS011;40963;52.168;21.296;2022-12-07T06:12:45;15.27;;;7.32;;
55063;SDS011;40963;52.168;21.296;2022-12-07T06:15:11;4.85;;;2.80;;
55063;SDS011;40963;52.168;21.296;2022-12-07T06:17:38;11.88;;;5.97;;
55063;SDS011;40963;52.168;21.296;2022-12-07T06:20:04;11.38;;;6.43;;
55063;SDS011;40963;52.168;21.296;2022-12-07T06:22:30;15.80;;;7.22;;
55063;SDS011;40963;52.168;21.296;2022-12-07T06:24:56;11.88;;;6.00;;
55063;SDS011;40963;52.168;21.296;2022-12-07T06:27:22;13.20;;;4.32;;
55063;SDS011;40963;52.168;21.296;2022-12-07T06:29:47;13.55;;;6.95;;
55063;SDS011;40963;52.168;21.296;2022-12-07T06:32:13;12.82;;;6.25;;
55063;SDS011;40963;52.168;21.296;2022-12-07T06:34:39;8.85;;;5.22;;
55063;SDS011;40963;52.168;21.296;2022-12-07T06:37:04;13.88;;;7.25;;
55063;SDS011;40963;52.168;21.296;2022-12-07T06:39:30;11.98;;;6.75;;
55063;SDS011;40963;52.168;21.296;2022-12-07T06:41:56;11.95;;;5.45;;
55063;SDS011;40963;52.168;21.296;2022-12-07T06:44:22;13.73;;;7.60;;
55063;SDS011;40963;52.168;21.296;2022-12-07T06:46:49;15.45;;;7.82;;
55063;SDS011;40963;52.168;21.296;2022-12-07T06:49:16;14.23;;;7.22;;
55063;SDS011;40963;52.168;21.296;2022-12-07T06:51:42;14.60;;;8.30;;
55063;SDS011;40963;52.168;21.296;2022-12-07T06:54:09;15.30;;;7.30;;
55063;SDS011;40963;52.168;21.296;2022-12-07T06:56:35;14.38;;;7.68;;
55063;SDS011;40963;52.168;21.296;2022-12-07T06:59:01;18.52;;;8.98;;
55063;SDS011;40963;52.168;21.296;2022-12-07T07:01:28;12.40;;;7.15;;
55063;SDS011;40963;52.168;21.296;2022-12-07T07:03:54;13.70;;;6.90;;
55063;SDS011;40963;52.168;21.296;2022-12-07T07:06:19;8.10;;;5.07;;
55063;SDS011;40963;52.168;21.296;2022-12-07T07:08:45;12.80;;;6.57;;
55063;SDS011;40963;52.168;21.296;2022-12-07T07:11:11;14.55;;;7.50;;
55063;SDS011;40963;52.168;21.296;2022-12-07T07:13:37;15.65;;;7.43;;
55063;SDS011;40963;52.168;21.296;2022-12-07T07:16:03;19.98;;;7.85;;
55063;SDS011;40963;52.168;21.296;2022-12-07T07:18:29;18.40;;;8.65;;
55063;SDS011;40963;52.168;21.296;2022-12-07T07:20:54;16.65;;;8.50;;
55063;SDS011;40963;52.168;21.296;2022-12-07T07:23:20;19.92;;;8.10;;
55063;SDS011;40963;52.168;21.296;2022-12-07T07:25:46;14.75;;;7.93;;
55063;SDS011;40963;52.168;21.296;2022-12-07T07:28:13;19.02;;;8.25;;
55063;SDS011;40963;52.168;21.296;2022-12-07T07:30:39;13.27;;;7.20;;
55063;SDS011;40963;52.168;21.296;2022-12-07T07:33:04;14.10;;;8.32;;
55063;SDS011;40963;52.168;21.296;2022-12-07T07:35:31;13.95;;;7.93;;
55063;SDS011;40963;52.168;21.296;2022-12-07T07:37:59;17.13;;;8.48;;
55063;SDS011;40963;52.168;21.296;2022-12-07T07:40:25;14.73;;;8.32;;
55063;SDS011;40963;52.168;21.296;2022-12-07T07:42:52;18.27;;;8.43;;
55063;SDS011;40963;52.168;21.296;2022-12-07T07:45:19;16.70;;;7.32;;
55063;SDS011;40963;52.168;21.296;2022-12-07T07:47:46;18.60;;;8.57;;
55063;SDS011;40963;52.168;21.296;2022-12-07T07:50:12;5.53;;;3.50;;
55063;SDS011;40963;52.168;21.296;2022-12-07T07:52:38;24.88;;;9.07;;
55063;SDS011;40963;52.168;21.296;2022-12-07T07:55:04;14.75;;;8.15;;
55063;SDS011;40963;52.168;21.296;2022-12-07T07:57:30;12.77;;;6.85;;
55063;SDS011;40963;52.168;21.296;2022-12-07T07:59:56;18.60;;;9.00;;
55063;SDS011;40963;52.168;21.296;2022-12-07T08:02:21;18.27;;;9.10;;
55063;SDS011;40963;52.168;21.296;2022-12-07T08:04:47;15.93;;;7.70;;
55063;SDS011;40963;52.168;21.296;2022-12-07T08:07:13;17.05;;;7.75;;
55063;SDS011;40963;52.168;21.296;2022-12-07T08:09:39;3.50;;;2.42;;
55063;SDS011;40963;52.168;21.296;2022-12-07T08:12:05;12.60;;;6.80;;
55063;SDS011;40963;52.168;21.296;2022-12-07T08:14:31;11.43;;;5.75;;
55063;SDS011;40963;52.168;21.296;2022-12-07T08:16:57;8.65;;;5.13;;
55063;SDS011;40963;52.168;21.296;2022-12-07T08:19:23;13.30;;;6.88;;
55063;SDS011;40963;52.168;21.296;2022-12-07T08:21:49;13.60;;;7.32;;
55063;SDS011;40963;52.168;21.296;2022-12-07T08:24:15;19.33;;;8.15;;
55063;SDS011;40963;52.168;21.296;2022-12-07T08:26:41;3.90;;;2.38;;
55063;SDS011;40963;52.168;21.296;2022-12-07T08:29:08;18.02;;;8.15;;
55063;SDS011;40963;52.168;21.296;2022-12-07T08:31:34;18.30;;;8.35;;
55063;SDS011;40963;52.168;21.296;2022-12-07T08:33:59;9.23;;;5.50;;
55063;SDS011;40963;52.168;21.296;2022-12-07T08:36:25;5.75;;;2.65;;
55063;SDS011;40963;52.168;21.296;2022-12-07T08:38:51;6.43;;;3.08;;
55063;SDS011;40963;52.168;21.296;2022-12-07T08:41:17;3.55;;;2.88;;
55063;SDS011;40963;52.168;21.296;2022-12-07T08:43:43;12.40;;;3.63;;
55063;SDS011;40963;52.168;21.296;2022-12-07T08:46:13;7.85;;;4.18;;
55063;SDS011;40963;52.168;21.296;2022-12-07T08:49:11;3.75;;;2.40;;
55063;SDS011;40963;52.168;21.296;2022-12-07T08:51:40;12.68;;;6.07;;
55063;SDS011;40963;52.168;21.296;2022-12-07T08:54:08;19.55;;;5.88;;
55063;SDS011;40963;52.168;21.296;2022-12-07T08:56:36;10.95;;;5.85;;
55063;SDS011;40963;52.168;21.296;2022-12-07T08:59:02;16.10;;;6.68;;
55063;SDS011;40963;52.168;21.296;2022-12-07T09:01:29;12.85;;;5.30;;
55063;SDS011;40963;52.168;21.296;2022-12-07T09:03:54;9.68;;;5.65;;
55063;SDS011;40963;52.168;21.296;2022-12-07T09:06:20;10.85;;;5.60;;
55063;SDS011;40963;52.168;21.296;2022-12-07T09:08:47;15.90;;;6.57;;
55063;SDS011;40963;52.168;21.296;2022-12-07T09:11:16;12.40;;;6.70;;
55063;SDS011;40963;52.168;21.296;2022-12-07T09:13:41;9.60;;;3.55;;
55063;SDS011;40963;52.168;21.296;2022-12-07T09:16:07;14.50;;;7.93;;
55063;SDS011;40963;52.168;21.296;2022-12-07T09:18:33;15.85;;;5.72;;
55063;SDS011;40963;52.168;21.296;2022-12-07T09:20:58;6.43;;;4.57;;
55063;SDS011;40963;52.168;21.296;2022-12-07T09:23:24;8.68;;;5.60;;
55063;SDS011;40963;52.168;21.296;2022-12-07T09:25:50;16.35;;;7.10;;
55063;SDS011;40963;52.168;21.296;2022-12-07T09:28:16;14.98;;;6.80;;
55063;SDS011;40963;52.168;21.296;2022-12-07T09:30:45;12.77;;;5.72;;
55063;SDS011;40963;52.168;21.296;2022-12-07T09:33:12;14.63;;;6.95;;
55063;SDS011;40963;52.168;21.296;2022-12-07T09:35:37;17.58;;;8.50;;
55063;SDS011;40963;52.168;21.296;2022-12-07T09:38:03;18.02;;;7.78;;
55063;SDS011;40963;52.168;21.296;2022-12-07T09:40:29;16.13;;;6.38;;
55063;SDS011;40963;52.168;21.296;2022-12-07T09:42:54;21.88;;;8.82;;
55063;SDS011;40963;52.168;21.296;2022-12-07T09:45:22;15.45;;;7.15;;
55063;SDS011;40963;52.168;21.296;2022-12-07T09:47:51;22.52;;;8.57;;
55063;SDS011;40963;52.168;21.296;2022-12-07T09:50:21;2.30;;;2.10;;
55063;SDS011;40963;52.168;21.296;2022-12-07T09:52:49;7.22;;;4.00;;
55063;SDS011;40963;52.168;21.296;2022-12-07T09:55:18;10.80;;;5.75;;
55063;SDS011;40963;52.168;21.296;2022-12-07T09:57:47;10.93;;;5.05;;
55063;SDS011;40963;52.168;21.296;2022-12-07T10:00:17;21.98;;;10.07;;
55063;SDS011;40963;52.168;21.296;2022-12-07T10:02:47;22.52;;;9.43;;
55063;SDS011;40963;52.168;21.296;2022-12-07T10:05:23;22.63;;;9.50;;
55063;SDS011;40963;52.168;21.296;2022-12-07T10:07:55;9.98;;;4.97;;
55063;SDS011;40963;52.168;21.296;2022-12-07T10:10:25;8.07;;;4.15;;
55063;SDS011;40963;52.168;21.296;2022-12-07T10:13:01;5.88;;;2.83;;
55063;SDS011;40963;52.168;21.296;2022-12-07T10:15:42;16.27;;;7.40;;
55063;SDS011;40963;52.168;21.296;2022-12-07T10:18:33;23.38;;;9.63;;
55063;SDS011;40963;52.168;21.296;2022-12-07T10:21:13;14.07;;;6.03;;
55063;SDS011;40963;52.168;21.296;2022-12-07T10:29:00;19.88;;;8.43;;
55063;SDS011;40963;52.168;21.296;2022-12-07T10:31:38;24.00;;;9.82;;
55063;SDS011;40963;52.168;21.296;2022-12-07T10:42:15;18.20;;;9.35;;
55063;SDS011;40963;52.168;21.296;2022-12-07T10:44:43;20.50;;;9.37;;
55063;SDS011;40963;52.168;21.296;2022-12-07T10:53:21;6.65;;;3.50;;
55063;SDS011;40963;52.168;21.296;2022-12-07T11:07:50;21.40;;;9.13;;
55063;SDS011;40963;52.168;21.296;2022-12-07T11:10:45;6.85;;;4.32;;
55063;SDS011;40963;52.168;21.296;2022-12-07T11:19:18;10.45;;;5.88;;
55063;SDS011;40963;52.168;21.296;2022-12-07T11:21:57;16.05;;;7.50;;
55063;SDS011;40963;52.168;21.296;2022-12-07T11:24:33;19.38;;;7.95;;
55063;SDS011;40963;52.168;21.296;2022-12-07T11:27:13;6.50;;;4.70;;
55063;SDS011;40963;52.168;21.296;2022-12-07T11:38:15;6.53;;;3.67;;
55063;SDS011;40963;52.168;21.296;2022-12-07T11:41:02;2.78;;;2.03;;
55063;SDS011;40963;52.168;21.296;2022-12-07T11:46:16;17.23;;;7.95;;
55063;SDS011;40963;52.168;21.296;2022-12-07T11:48:57;21.27;;;8.00;;
55063;SDS011;40963;52.168;21.296;2022-12-07T11:51:24;7.05;;;3.75;;
55063;SDS011;40963;52.168;21.296;2022-12-07T11:53:52;15.13;;;7.93;;
55063;SDS011;40963;52.168;21.296;2022-12-07T11:56:23;2.83;;;2.33;;
55063;SDS011;40963;52.168;21.296;2022-12-07T11:59:00;22.30;;;9.45;;
55063;SDS011;40963;52.168;21.296;2022-12-07T12:04:30;13.07;;;6.65;;
55063;SDS011;40963;52.168;21.296;2022-12-07T12:07:18;3.03;;;2.17;;
55063;SDS011;40963;52.168;21.296;2022-12-07T12:09:49;14.15;;;5.85;;
55063;SDS011;40963;52.168;21.296;2022-12-07T12:12:32;8.82;;;5.32;;
55063;SDS011;40963;52.168;21.296;2022-12-07T12:18:17;16.02;;;8.32;;
55063;SDS011;40963;52.168;21.296;2022-12-07T12:23:25;18.23;;;10.05;;
55063;SDS011;40963;52.168;21.296;2022-12-07T12:26:03;19.85;;;9.55;;
55063;SDS011;40963;52.168;21.296;2022-12-07T12:31:07;12.45;;;7.40;;
55063;SDS011;40963;52.168;21.296;2022-12-07T12:33:37;22.50;;;10.13;;
55063;SDS011;40963;52.168;21.296;2022-12-07T12:44:01;7.22;;;3.83;;
55063;SDS011;40963;52.168;21.296;2022-12-07T12:51:47;20.75;;;8.68;;
55063;SDS011;40963;52.168;21.296;2022-12-07T12:54:18;16.73;;;6.60;;
55063;SDS011;40963;52.168;21.296;2022-12-07T13:02:32;13.40;;;8.48;;
55063;SDS011;40963;52.168;21.296;2022-12-07T13:04:59;20.27;;;9.38;;
55063;SDS011;40963;52.168;21.296;2022-12-07T13:13:02;14.07;;;7.75;;
55063;SDS011;40963;52.168;21.296;2022-12-07T13:23:37;11.65;;;5.85;;
55063;SDS011;40963;52.168;21.296;2022-12-07T13:29:15;15.70;;;8.52;;
55063;SDS011;40963;52.168;21.296;2022-12-07T13:31:50;22.80;;;10.40;;
55063;SDS011;40963;52.168;21.296;2022-12-07T13:36:52;15.50;;;8.30;;
55063;SDS011;40963;52.168;21.296;2022-12-07T13:39:22;18.95;;;9.70;;
55063;SDS011;40963;52.168;21.296;2022-12-07T13:41:51;20.17;;;10.07;;
55063;SDS011;40963;52.168;21.296;2022-12-07T13:44:22;17.02;;;9.30;;
55063;SDS011;40963;52.168;21.296;2022-12-07T13:46:51;10.98;;;5.60;;
55063;SDS011;40963;52.168;21.296;2022-12-07T13:51:54;17.33;;;8.98;;
55063;SDS011;40963;52.168;21.296;2022-12-07T13:54:31;4.88;;;2.60;;
55063;SDS011;40963;52.168;21.296;2022-12-07T13:56:57;28.13;;;9.50;;
55063;SDS011;40963;52.168;21.296;2022-12-07T13:59:24;10.13;;;6.18;;
55063;SDS011;40963;52.168;21.296;2022-12-07T14:01:52;16.13;;;8.80;;
55063;SDS011;40963;52.168;21.296;2022-12-07T14:04:19;17.83;;;9.15;;
55063;SDS011;40963;52.168;21.296;2022-12-07T14:06:48;21.42;;;9.43;;
55063;SDS011;40963;52.168;21.296;2022-12-07T14:09:19;4.88;;;2.60;;
55063;SDS011;40963;52.168;21.296;2022-12-07T14:11:50;13.82;;;7.50;;
55063;SDS011;40963;52.168;21.296;2022-12-07T14:14:22;15.95;;;8.98;;
55063;SDS011;40963;52.168;21.296;2022-12-07T14:17:02;16.48;;;7.75;;
55063;SDS011;40963;52.168;21.296;2022-12-07T14:22:08;16.42;;;8.30;;
55063;SDS011;40963;52.168;21.296;2022-12-07T14:24:43;13.70;;;7.60;;
55063;SDS011;40963;52.168;21.296;2022-12-07T14:27:23;14.95;;;8.65;;
55063;SDS011;40963;52.168;21.296;2022-12-07T14:29:55;12.38;;;6.43;;
55063;SDS011;40963;52.168;21.296;2022-12-07T14:32:25;9.32;;;4.40;;
55063;SDS011;40963;52.168;21.296;2022-12-07T14:35:12;3.50;;;2.53;;
55063;SDS011;40963;52.168;21.296;2022-12-07T14:37:39;19.38;;;9.75;;
55063;SDS011;40963;52.168;21.296;2022-12-07T14:40:06;12.68;;;7.47;;
55063;SDS011;40963;52.168;21.296;2022-12-07T14:42:37;22.25;;;9.93;;
55063;SDS011;40963;52.168;21.296;2022-12-07T14:45:03;17.45;;;9.52;;
55063;SDS011;40963;52.168;21.296;2022-12-07T14:47:29;8.25;;;5.30;;
55063;SDS011;40963;52.168;21.296;2022-12-07T14:49:54;17.17;;;9.93;;
55063;SDS011;40963;52.168;21.296;2022-12-07T14:52:21;16.00;;;9.40;;
55063;SDS011;40963;52.168;21.296;2022-12-07T14:54:51;10.02;;;5.30;;
55063;SDS011;40963;52.168;21.296;2022-12-07T14:57:17;18.13;;;10.13;;
55063;SDS011;40963;52.168;21.296;2022-12-07T14:59:43;17.40;;;9.40;;
55063;SDS011;40963;52.168;21.296;2022-12-07T15:02:10;25.15;;;11.30;;
55063;SDS011;40963;52.168;21.296;2022-12-07T15:04:37;19.65;;;9.98;;
55063;SDS011;40963;52.168;21.296;2022-12-07T15:07:04;19.85;;;11.00;;
55063;SDS011;40963;52.168;21.296;2022-12-07T15:09:31;18.20;;;8.95;;
55063;SDS011;40963;52.168;21.296;2022-12-07T15:11:56;24.08;;;11.32;;
55063;SDS011;40963;52.168;21.296;2022-12-07T15:14:22;13.68;;;8.75;;
55063;SDS011;40963;52.168;21.296;2022-12-07T15:16:48;21.73;;;10.18;;
55063;SDS011;40963;52.168;21.296;2022-12-07T15:19:18;19.60;;;8.85;;
55063;SDS011;40963;52.168;21.296;2022-12-07T15:21:49;18.23;;;8.48;;
55063;SDS011;40963;52.168;21.296;2022-12-07T15:24:15;22.42;;;10.70;;
55063;SDS011;40963;52.168;21.296;2022-12-07T15:26:41;18.35;;;9.55;;
55063;SDS011;40963;52.168;21.296;2022-12-07T15:29:07;17.00;;;9.57;;
55063;SDS011;40963;52.168;21.296;2022-12-07T15:31:33;21.73;;;10.75;;
55063;SDS011;40963;52.168;21.296;2022-12-07T15:33:59;23.73;;;11.18;;
55063;SDS011;40963;52.168;21.296;2022-12-07T15:36:26;21.15;;;11.15;;
55063;SDS011;40963;52.168;21.296;2022-12-07T15:38:53;25.50;;;12.88;;
55063;SDS011;40963;52.168;21.296;2022-12-07T15:41:19;31.45;;;14.45;;
55063;SDS011;40963;52.168;21.296;2022-12-07T15:43:45;41.13;;;14.98;;
55063;SDS011;40963;52.168;21.296;2022-12-07T15:46:33;39.35;;;15.00;;
55063;SDS011;40963;52.168;21.296;2022-12-07T15:49:02;24.95;;;12.40;;
55063;SDS011;40963;52.168;21.296;2022-12-07T15:51:29;26.08;;;11.30;;
55063;SDS011;40963;52.168;21.296;2022-12-07T15:53:56;34.15;;;13.68;;
55063;SDS011;40963;52.168;21.296;2022-12-07T15:56:23;31.13;;;13.15;;
55063;SDS011;40963;52.168;21.296;2022-12-07T15:58:49;38.58;;;15.52;;
55063;SDS011;40963;52.168;21.296;2022-12-07T16:01:15;24.70;;;12.80;;
55063;SDS011;40963;52.168;21.296;2022-12-07T16:03:43;28.60;;;13.52;;
55063;SDS011;40963;52.168;21.296;2022-12-07T16:06:10;21.35;;;12.02;;
55063;SDS011;40963;52.168;21.296;2022-12-07T16:08:36;31.77;;;13.57;;
55063;SDS011;40963;52.168;21.296;2022-12-07T16:11:06;32.15;;;13.82;;
55063;SDS011;40963;52.168;21.296;2022-12-07T16:13:32;28.73;;;13.32;;
55063;SDS011;40963;52.168;21.296;2022-12-07T16:16:02;25.23;;;11.57;;
55063;SDS011;40963;52.168;21.296;2022-12-07T16:18:29;19.92;;;9.63;;
55063;SDS011;40963;52.168;21.296;2022-12-07T16:20:55;43.05;;;13.02;;
55063;SDS011;40963;52.168;21.296;2022-12-07T16:23:20;27.83;;;12.90;;
55063;SDS011;40963;52.168;21.296;2022-12-07T16:25:46;23.02;;;11.95;;
55063;SDS011;40963;52.168;21.296;2022-12-07T16:28:12;20.23;;;10.30;;
55063;SDS011;40963;52.168;21.296;2022-12-07T16:30:37;31.08;;;13.15;;
55063;SDS011;40963;52.168;21.296;2022-12-07T16:33:03;27.17;;;12.93;;
55063;SDS011;40963;52.168;21.296;2022-12-07T16:35:29;26.65;;;12.88;;